Time;durP1;ratioP1;P1;durP2;ratioP2;P2;SDS_P1;SDS_P2;PMS_P1;PMS_P2;Temp;Humidity;BMP_temperature;BMP_pressure;BME280_temperature;BME280_humidity;BME280_pressure;Samples;Min_cycle;Max_cycle;Signal;HPM_P1;HPM_P2
2022/07/09 00:00:07;;;;;;;3.70;3.13;;;20.40;81.30;;;;;;5049415;28;20216;-69
2022/07/09 00:02:35;;;;;;;3.80;3.50;;;20.40;81.40;;;;;;5047410;28;20311;-69
2022/07/09 00:05:01;;;;;;;3.77;3.47;;;20.40;81.40;;;;;;5047335;28;20550;-68
2022/07/09 00:07:26;;;;;;;3.90;3.60;;;20.40;81.50;;;;;;5025547;28;21055;-69
2022/07/09 00:09:52;;;;;;;4.43;3.73;;;20.30;81.30;;;;;;5044449;28;20216;-69
2022/07/09 00:12:18;;;;;;;4.60;4.20;;;20.30;81.60;;;;;;5037293;28;20255;-69
2022/07/09 00:14:44;;;;;;;4.23;3.93;;;20.30;81.70;;;;;;5030696;28;20243;-69
2022/07/09 00:17:10;;;;;;;3.60;3.40;;;20.30;81.70;;;;;;5047211;28;20730;-69
2022/07/09 00:19:36;;;;;;;4.23;3.10;;;20.30;81.90;;;;;;5042866;28;20220;-69
2022/07/09 00:22:02;;;;;;;3.70;3.40;;;20.20;81.50;;;;;;5045736;28;20220;-69
2022/07/09 00:24:28;;;;;;;3.77;3.47;;;20.20;81.70;;;;;;5015660;28;20466;-69
2022/07/09 00:26:53;;;;;;;3.50;3.30;;;20.20;81.90;;;;;;5043412;28;20470;-69
2022/07/09 00:29:19;;;;;;;4.23;3.43;;;20.20;82.10;;;;;;5028680;28;20619;-69
2022/07/09 00:31:45;;;;;;;3.70;3.40;;;20.20;81.90;;;;;;5048672;28;20215;-70
2022/07/09 00:34:12;;;;;;;3.80;3.20;;;20.10;81.80;;;;;;5027355;28;20232;-68
2022/07/09 00:36:38;;;;;;;3.30;3.10;;;20.10;81.80;;;;;;5045001;28;20474;-69
2022/07/09 00:39:04;;;;;;;3.30;3.00;;;20.10;81.80;;;;;;5043967;28;20494;-69
2022/07/09 00:41:30;;;;;;;4.40;3.80;;;20.10;82.10;;;;;;5045109;28;20204;-69
2022/07/09 00:43:56;;;;;;;4.33;4.03;;;20.10;81.90;;;;;;5044992;28;20584;-70
2022/07/09 00:46:21;;;;;;;4.20;3.47;;;20.00;81.70;;;;;;5042718;28;20216;-68
2022/07/09 00:48:47;;;;;;;7.27;3.60;;;20.00;82.20;;;;;;5046855;28;20302;-69
2022/07/09 00:51:16;;;;;;;3.80;3.50;;;20.00;83.30;;;;;;5044797;28;20208;-69
2022/07/09 00:53:42;;;;;;;4.17;3.80;;;19.90;82.40;;;;;;5046203;28;20253;-68
2022/07/09 00:56:08;;;;;;;4.00;3.50;;;19.90;82.40;;;;;;5030037;28;20505;-69
2022/07/09 00:58:35;;;;;;;4.03;3.73;;;19.90;82.30;;;;;;5047445;28;20216;-68
2022/07/09 01:01:01;;;;;;;4.87;4.40;;;19.90;82.50;;;;;;5046073;28;20473;-70
2022/07/09 01:03:27;;;;;;;4.70;3.80;;;19.90;82.40;;;;;;5044232;28;20478;-70
2022/07/09 01:05:53;;;;;;;5.60;3.50;;;19.80;82.80;;;;;;5043629;28;20463;-69
2022/07/09 01:08:19;;;;;;;4.07;3.77;;;19.80;82.50;;;;;;5044867;28;20224;-69
2022/07/09 01:10:45;;;;;;;5.40;3.67;;;19.80;82.60;;;;;;5046271;28;20216;-69
2022/07/09 01:13:11;;;;;;;3.87;3.60;;;19.80;82.80;;;;;;5045569;28;20503;-69
2022/07/09 01:15:37;;;;;;;3.33;3.03;;;19.80;82.80;;;;;;5046059;28;20937;-69
2022/07/09 01:18:03;;;;;;;3.97;3.60;;;19.70;82.60;;;;;;5048035;28;20232;-69
2022/07/09 01:20:29;;;;;;;3.93;3.73;;;19.70;82.60;;;;;;5044658;28;20247;-69
2022/07/09 01:22:56;;;;;;;3.50;3.20;;;19.70;82.70;;;;;;5040028;28;20486;-69
2022/07/09 01:25:33;;;;;;;4.30;3.90;;;19.70;83.40;;;;;;5042994;28;20468;-69
2022/07/09 01:27:59;;;;;;;3.90;3.53;;;19.70;82.90;;;;;;5046710;28;20450;-68
2022/07/09 01:30:27;;;;;;;4.00;3.70;;;19.60;82.60;;;;;;5045102;28;20461;-68
2022/07/09 01:32:54;;;;;;;3.97;3.67;;;19.60;82.80;;;;;;5041266;28;20295;-68
2022/07/09 01:35:20;;;;;;;4.07;3.67;;;19.60;82.80;;;;;;5041383;28;21040;-69
2022/07/09 01:37:45;;;;;;;3.93;3.63;;;19.60;82.80;;;;;;5046486;28;20504;-69
2022/07/09 01:40:12;;;;;;;3.60;3.40;;;19.60;82.80;;;;;;5026914;28;20451;-69
2022/07/09 01:42:37;;;;;;;4.87;3.70;;;19.50;82.90;;;;;;5045339;28;20228;-69
2022/07/09 01:45:03;;;;;;;4.37;3.83;;;19.50;83.70;;;;;;5044919;28;20466;-69
2022/07/09 01:47:29;;;;;;;3.80;3.50;;;19.40;83.30;;;;;;5044878;28;20306;-69
2022/07/09 01:49:55;;;;;;;4.10;3.77;;;19.30;83.80;;;;;;5045714;28;20550;-69
2022/07/09 01:52:21;;;;;;;3.87;3.57;;;19.30;83.50;;;;;;5044904;28;20220;-69
2022/07/09 01:54:46;;;;;;;4.50;4.20;;;19.30;83.80;;;;;;5026991;28;20723;-69
2022/07/09 01:57:12;;;;;;;4.30;3.90;;;19.30;83.80;;;;;;5041940;28;20208;-69
2022/07/09 01:59:38;;;;;;;4.30;4.00;;;19.30;83.80;;;;;;5045639;28;20603;-68
2022/07/09 02:02:05;;;;;;;4.10;3.80;;;19.30;84.80;;;;;;5042661;28;20274;-70
2022/07/09 02:04:31;;;;;;;4.20;3.80;;;19.20;84.20;;;;;;5040726;28;20262;-69
2022/07/09 02:06:56;;;;;;;5.57;3.77;;;19.20;84.80;;;;;;5045802;28;20462;-69
2022/07/09 02:09:22;;;;;;;4.87;3.93;;;19.00;86.10;;;;;;5044754;28;20466;-68
2022/07/09 02:11:49;;;;;;;4.90;4.40;;;18.90;86.50;;;;;;5044656;28;20332;-68
2022/07/09 02:14:15;;;;;;;5.67;3.53;;;18.90;86.80;;;;;;5044038;28;20627;-69
2022/07/09 02:16:41;;;;;;;4.10;3.80;;;18.70;87.70;;;;;;5047000;28;20507;-68
2022/07/09 02:19:07;;;;;;;5.53;5.07;;;18.70;88.30;;;;;;5043222;28;20467;-69
2022/07/09 02:21:33;;;;;;;4.70;4.33;;;18.60;88.80;;;;;;5042531;28;20204;-69
2022/07/09 02:23:59;;;;;;;6.00;4.00;;;18.50;89.30;;;;;;5045601;28;20219;-69
2022/07/09 02:26:29;;;;;;;4.60;4.20;;;18.50;89.80;;;;;;5026896;28;20466;-68
2022/07/09 02:28:55;;;;;;;4.17;3.77;;;18.50;90.10;;;;;;5044845;28;20458;-69
2022/07/09 02:31:21;;;;;;;4.90;4.50;;;18.50;90.10;;;;;;5042186;28;20454;-68
2022/07/09 02:33:47;;;;;;;4.17;3.87;;;18.40;90.30;;;;;;5046409;28;20458;-68
2022/07/09 02:36:13;;;;;;;5.13;4.63;;;18.40;90.40;;;;;;5042933;28;20688;-69
2022/07/09 02:38:38;;;;;;;3.83;3.53;;;18.40;90.50;;;;;;5029929;28;20212;-69
2022/07/09 02:41:05;;;;;;;7.57;4.87;;;18.30;90.50;;;;;;5044787;28;20240;-69
2022/07/09 02:43:31;;;;;;;5.63;4.30;;;18.30;90.70;;;;;;5043057;28;20224;-69
2022/07/09 02:45:57;;;;;;;8.23;4.40;;;18.30;90.90;;;;;;5044411;28;20458;-70
2022/07/09 02:48:23;;;;;;;5.30;4.03;;;18.20;90.60;;;;;;5042492;28;20601;-69
2022/07/09 02:50:52;;;;;;;5.00;4.43;;;18.30;90.30;;;;;;5026743;28;20224;-69
2022/07/09 02:53:18;;;;;;;4.37;3.90;;;18.30;90.40;;;;;;5025932;28;20494;-69
2022/07/09 02:55:44;;;;;;;8.43;4.60;;;18.30;90.30;;;;;;5046317;28;20454;-69
2022/07/09 02:58:11;;;;;;;6.30;3.83;;;18.30;90.40;;;;;;5047375;28;20497;-70
2022/07/09 03:00:39;;;;;;;5.10;3.77;;;18.30;90.40;;;;;;5048972;28;20450;-69
2022/07/09 03:03:06;;;;;;;4.63;4.23;;;18.30;90.10;;;;;;5032417;28;20474;-69
2022/07/09 03:05:31;;;;;;;4.17;3.90;;;18.40;90.20;;;;;;5046310;28;20454;-69
2022/07/09 03:07:58;;;;;;;4.90;4.37;;;18.40;90.10;;;;;;5049192;28;20500;-70
2022/07/09 03:10:23;;;;;;;4.53;4.00;;;18.40;90.20;;;;;;5048092;28;20216;-68
2022/07/09 03:12:49;;;;;;;5.23;4.73;;;18.40;90.00;;;;;;5034191;28;20504;-69
2022/07/09 03:15:16;;;;;;;4.47;4.17;;;18.30;90.20;;;;;;5058866;28;20223;-70
2022/07/09 03:17:46;;;;;;;4.93;4.43;;;18.30;90.30;;;;;;5032725;28;20303;-69
2022/07/09 03:20:13;;;;;;;5.30;4.80;;;18.20;90.30;;;;;;5046925;28;20470;-68
2022/07/09 03:22:39;;;;;;;4.60;4.20;;;18.20;90.40;;;;;;5033985;28;20462;-69
2022/07/09 03:25:06;;;;;;;4.60;4.17;;;18.20;90.30;;;;;;5031695;28;20458;-69
2022/07/09 03:27:32;;;;;;;4.50;4.10;;;18.20;90.40;;;;;;5046589;28;20946;-69
2022/07/09 03:29:58;;;;;;;5.20;4.77;;;18.20;90.80;;;;;;5048043;28;20473;-69
2022/07/09 03:32:24;;;;;;;4.60;4.20;;;18.20;90.50;;;;;;5047314;28;20958;-68
2022/07/09 03:34:52;;;;;;;4.10;3.80;;;18.10;90.90;;;;;;5028795;28;20987;-68
2022/07/09 03:37:18;;;;;;;6.30;4.67;;;18.00;91.10;;;;;;5024557;28;20473;-68
2022/07/09 03:39:44;;;;;;;7.90;4.97;;;18.00;91.40;;;;;;5037861;28;20451;-69
2022/07/09 03:42:11;;;;;;;4.97;4.57;;;17.90;91.60;;;;;;5034677;28;20474;-71
2022/07/09 03:44:37;;;;;;;5.53;4.30;;;17.80;91.70;;;;;;5040205;28;20465;-68
2022/07/09 03:47:03;;;;;;;5.90;3.90;;;17.70;92.00;;;;;;5044948;28;20986;-68
2022/07/09 03:49:29;;;;;;;5.90;4.07;;;17.70;92.20;;;;;;5044732;28;20879;-69
2022/07/09 03:51:55;;;;;;;4.17;3.87;;;17.60;92.50;;;;;;5032875;28;20541;-69
2022/07/09 03:54:20;;;;;;;6.63;4.20;;;17.60;92.70;;;;;;5037161;28;20306;-70
2022/07/09 03:56:46;;;;;;;7.73;4.17;;;17.60;92.80;;;;;;5049583;28;20215;-68
2022/07/09 03:59:12;;;;;;;4.73;4.33;;;17.70;92.60;;;;;;5045389;28;20211;-69
2022/07/09 04:01:37;;;;;;;4.73;3.93;;;17.70;92.80;;;;;;5055938;28;20224;-70
2022/07/09 04:04:04;;;;;;;4.70;4.30;;;17.70;93.00;;;;;;5059796;28;20220;-69
2022/07/09 04:06:30;;;;;;;4.77;4.37;;;17.60;93.10;;;;;;5045720;28;20266;-68
2022/07/09 04:08:55;;;;;;;4.53;4.10;;;17.70;92.80;;;;;;5043930;28;20479;-69
2022/07/09 04:11:21;;;;;;;4.47;4.07;;;17.70;92.40;;;;;;5058397;28;20259;-68
2022/07/09 04:13:47;;;;;;;4.43;4.13;;;17.70;92.80;;;;;;5048310;28;20222;-69
2022/07/09 04:16:13;;;;;;;6.43;5.07;;;17.70;93.10;;;;;;5046651;28;20234;-67
2022/07/09 04:18:43;;;;;;;4.87;4.43;;;17.60;93.20;;;;;;5048964;28;20463;-68
2022/07/09 04:21:09;;;;;;;5.07;4.67;;;17.60;93.60;;;;;;5047461;28;20312;-69
2022/07/09 04:23:35;;;;;;;4.30;3.90;;;17.60;93.70;;;;;;5030456;28;20478;-68
2022/07/09 04:26:01;;;;;;;7.47;4.33;;;17.60;93.60;;;;;;5031043;28;20458;-68
2022/07/09 04:28:27;;;;;;;4.37;3.83;;;17.60;93.10;;;;;;5044854;28;20604;-69
2022/07/09 04:30:52;;;;;;;4.30;4.00;;;17.60;93.40;;;;;;5047211;28;20294;-69
2022/07/09 04:33:18;;;;;;;4.70;4.30;;;17.60;93.70;;;;;;5044776;28;20224;-70
2022/07/09 04:35:45;;;;;;;4.23;3.43;;;17.60;94.00;;;;;;5047276;28;20223;-70
2022/07/09 04:38:13;;;;;;;3.77;3.40;;;17.60;94.20;;;;;;5040286;28;20238;-70
2022/07/09 04:40:39;;;;;;;3.80;3.57;;;17.70;93.10;;;;;;5044333;28;20578;-70
2022/07/09 04:43:06;;;;;;;5.80;4.40;;;17.70;93.70;;;;;;5036479;28;20572;-69
2022/07/09 04:45:32;;;;;;;5.57;4.40;;;17.70;93.50;;;;;;5044771;28;20361;-69
2022/07/09 04:47:58;;;;;;;6.20;4.30;;;17.70;93.90;;;;;;5047603;28;20541;-69
2022/07/09 04:50:25;;;;;;;4.90;4.27;;;17.70;94.20;;;;;;5043415;28;20230;-69
2022/07/09 04:52:51;;;;;;;4.23;3.93;;;17.70;94.50;;;;;;5047350;28;20543;-69
2022/07/09 04:55:17;;;;;;;4.60;4.20;;;17.70;94.50;;;;;;5045447;28;20501;-69
2022/07/09 04:57:43;;;;;;;4.40;4.10;;;17.70;94.30;;;;;;5045862;28;20584;-69
2022/07/09 05:00:10;;;;;;;5.03;3.70;;;17.70;94.00;;;;;;5046057;28;20454;-69
2022/07/09 05:02:36;;;;;;;4.13;3.73;;;17.80;93.50;;;;;;5024943;28;20827;-70
2022/07/09 05:05:03;;;;;;;3.80;3.50;;;17.80;93.80;;;;;;5043864;28;20475;-70
2022/07/09 05:07:30;;;;;;;3.90;3.50;;;17.80;93.90;;;;;;5040471;28;20467;-70
2022/07/09 05:09:56;;;;;;;3.97;3.67;;;17.80;94.00;;;;;;5030241;28;20540;-69
2022/07/09 05:12:22;;;;;;;4.03;3.73;;;17.80;94.20;;;;;;5045561;28;20493;-69
2022/07/09 05:14:48;;;;;;;5.90;3.53;;;17.80;94.20;;;;;;5047426;28;21034;-70
2022/07/09 05:17:14;;;;;;;4.10;3.80;;;17.80;94.50;;;;;;5045374;28;20231;-69
2022/07/09 05:19:39;;;;;;;3.97;3.67;;;17.80;95.10;;;;;;5046606;28;20208;-70
2022/07/09 05:22:05;;;;;;;4.50;4.13;;;17.80;95.50;;;;;;5046442;28;20218;-69
2022/07/09 05:24:31;;;;;;;3.90;3.60;;;17.70;96.00;;;;;;5027461;28;20298;-70
2022/07/09 05:26:56;;;;;;;3.90;3.60;;;17.80;95.80;;;;;;5046443;28;20261;-69
2022/07/09 05:29:22;;;;;;;4.83;3.13;;;17.80;95.80;;;;;;5027807;28;20759;-69
2022/07/09 05:31:49;;;;;;;3.90;3.60;;;17.80;95.50;;;;;;5042928;28;20216;-70
2022/07/09 05:34:16;;;;;;;4.73;3.43;;;17.80;95.20;;;;;;5042281;28;20208;-69
2022/07/09 05:36:42;;;;;;;4.50;3.97;;;17.90;94.80;;;;;;5030219;28;20457;-70
2022/07/09 05:39:08;;;;;;;3.93;3.63;;;17.90;94.80;;;;;;5046772;28;20465;-70
2022/07/09 05:41:33;;;;;;;4.03;3.73;;;18.00;95.10;;;;;;5045360;28;20443;-70
2022/07/09 05:43:59;;;;;;;4.87;3.67;;;18.00;95.70;;;;;;5047219;28;20335;-70
2022/07/09 05:46:25;;;;;;;3.83;3.63;;;18.00;96.70;;;;;;5043758;28;20657;-71
2022/07/09 05:48:51;;;;;;;4.13;3.70;;;18.00;96.50;;;;;;5040420;28;20610;-71
2022/07/09 05:51:17;;;;;;;3.80;3.50;;;18.00;97.00;;;;;;5034402;28;20624;-70
2022/07/09 05:53:43;;;;;;;5.47;4.50;;;18.00;97.30;;;;;;5038261;28;20216;-70
2022/07/09 05:56:08;;;;;;;5.07;4.23;;;18.10;97.20;;;;;;5046734;28;20223;-70
2022/07/09 05:58:34;;;;;;;4.73;3.27;;;18.10;97.50;;;;;;5044830;28;20220;-70
2022/07/09 06:01:00;;;;;;;3.67;3.47;;;18.20;97.30;;;;;;5046430;28;20273;-70
2022/07/09 06:03:26;;;;;;;8.40;3.80;;;18.20;97.20;;;;;;5026209;28;20475;-70
2022/07/09 06:05:52;;;;;;;5.50;3.20;;;18.20;97.50;;;;;;5061061;28;20225;-70
2022/07/09 06:08:18;;;;;;;3.70;3.40;;;18.30;97.30;;;;;;5034276;28;20230;-70
2022/07/09 06:10:43;;;;;;;5.63;3.43;;;18.30;97.10;;;;;;5029263;28;20460;-69
2022/07/09 06:13:09;;;;;;;7.70;3.80;;;18.40;97.30;;;;;;5042797;28;20224;-70
2022/07/09 06:15:35;;;;;;;3.80;3.50;;;18.40;97.00;;;;;;5041095;28;20230;-70
2022/07/09 06:18:01;;;;;;;5.27;3.73;;;18.50;97.40;;;;;;5035892;28;20216;-70
2022/07/09 06:20:27;;;;;;;3.30;3.10;;;18.50;97.50;;;;;;5039904;28;20696;-70
2022/07/09 06:22:53;;;;;;;6.30;3.77;;;18.60;97.90;;;;;;5032004;28;20474;-70
2022/07/09 06:25:18;;;;;;;3.67;3.20;;;18.60;98.30;;;;;;5041848;28;20466;-71
2022/07/09 06:27:44;;;;;;;8.13;3.70;;;18.70;98.50;;;;;;5042027;28;20227;-70
2022/07/09 06:30:10;;;;;;;3.90;3.60;;;18.70;98.10;;;;;;5042101;28;20226;-70
2022/07/09 06:32:36;;;;;;;3.17;2.97;;;18.70;98.30;;;;;;5039018;28;20246;-70
2022/07/09 06:35:02;;;;;;;4.80;4.00;;;18.80;98.40;;;;;;5045633;28;20239;-70
2022/07/09 06:37:28;;;;;;;5.53;3.80;;;18.90;98.00;;;;;;5036862;28;20311;-70
2022/07/09 06:39:56;;;;;;;3.83;3.50;;;19.10;97.90;;;;;;5046552;28;20558;-70
2022/07/09 06:42:22;;;;;;;4.80;3.17;;;19.20;97.80;;;;;;5025880;28;20228;-70
2022/07/09 06:44:57;;;;;;;3.90;3.60;;;19.30;97.50;;;;;;5043460;28;21039;-70
2022/07/09 06:47:23;;;;;;;3.90;3.60;;;19.30;97.30;;;;;;5042438;28;20442;-69
2022/07/09 06:49:48;;;;;;;3.47;3.17;;;19.30;97.40;;;;;;5040201;28;20709;-70
2022/07/09 06:52:14;;;;;;;4.37;3.40;;;19.40;97.40;;;;;;5041076;28;20269;-70
2022/07/09 06:54:40;;;;;;;7.20;3.70;;;19.40;97.50;;;;;;5045924;28;20220;-70
2022/07/09 06:57:06;;;;;;;4.13;3.43;;;19.50;97.40;;;;;;5046498;28;20223;-70
2022/07/09 06:59:32;;;;;;;5.70;3.80;;;19.60;97.20;;;;;;5042032;28;20247;-69
2022/07/09 07:01:58;;;;;;;5.90;2.90;;;19.60;97.30;;;;;;5024773;28;20498;-70
2022/07/09 07:04:25;;;;;;;4.10;3.60;;;19.70;97.20;;;;;;5024673;28;20228;-69
2022/07/09 07:06:51;;;;;;;4.40;4.00;;;19.80;97.30;;;;;;5045145;28;20216;-69
2022/07/09 07:09:18;;;;;;;4.03;3.40;;;20.00;97.10;;;;;;5041740;28;20485;-70
2022/07/09 07:11:45;;;;;;;6.73;4.07;;;20.00;97.00;;;;;;5043637;28;20212;-70
2022/07/09 07:14:11;;;;;;;5.90;5.37;;;20.10;97.00;;;;;;5044094;28;21023;-69
2022/07/09 07:16:37;;;;;;;5.43;4.93;;;20.30;97.20;;;;;;5044023;28;20458;-69
2022/07/09 07:19:03;;;;;;;5.60;5.10;;;20.40;97.00;;;;;;5039342;28;20266;-69
2022/07/09 07:21:29;;;;;;;6.57;4.70;;;20.50;96.70;;;;;;5041649;28;20270;-70
2022/07/09 07:23:54;;;;;;;6.40;4.70;;;20.60;96.50;;;;;;5044798;28;20549;-71
2022/07/09 07:26:20;;;;;;;6.77;4.47;;;20.60;96.50;;;;;;5022500;28;20225;-70
2022/07/09 07:28:46;;;;;;;5.20;4.60;;;20.70;96.40;;;;;;5021000;28;20216;-70
2022/07/09 07:31:11;;;;;;;5.63;4.20;;;20.80;96.50;;;;;;5032229;28;20228;-70
2022/07/09 07:33:38;;;;;;;5.70;3.90;;;20.80;96.00;;;;;;5044246;28;20219;-70
2022/07/09 07:36:04;;;;;;;4.50;4.00;;;20.90;96.10;;;;;;5027555;28;20594;-70
2022/07/09 07:38:30;;;;;;;4.50;4.20;;;21.00;96.00;;;;;;5035627;28;20462;-70
2022/07/09 07:40:56;;;;;;;5.60;3.87;;;21.00;96.10;;;;;;5027071;28;20462;-70
2022/07/09 07:43:21;;;;;;;4.13;3.47;;;21.00;96.10;;;;;;5042112;28;20224;-70
2022/07/09 07:45:47;;;;;;;6.40;4.10;;;21.10;96.20;;;;;;5048785;28;20239;-70
2022/07/09 07:48:13;;;;;;;10.63;4.60;;;21.20;96.10;;;;;;5028593;28;20236;-70
2022/07/09 07:50:39;;;;;;;5.97;4.33;;;21.20;95.50;;;;;;5047871;28;20238;-70
2022/07/09 07:53:07;;;;;;;7.27;4.17;;;21.20;95.90;;;;;;5046257;28;20588;-69
2022/07/09 07:55:33;;;;;;;4.80;4.33;;;21.40;95.40;;;;;;5028303;28;20223;-70
2022/07/09 07:57:59;;;;;;;5.50;5.10;;;21.40;95.20;;;;;;5048458;28;20994;-70
2022/07/09 08:00:25;;;;;;;9.30;4.57;;;21.50;95.20;;;;;;5045660;28;20497;-70
2022/07/09 08:02:51;;;;;;;4.40;3.90;;;21.50;94.80;;;;;;5047666;28;20255;-69
2022/07/09 08:05:17;;;;;;;4.70;3.73;;;21.70;95.20;;;;;;5045389;28;20220;-70
2022/07/09 08:07:42;;;;;;;10.00;3.97;;;21.80;95.00;;;;;;5039930;28;20224;-70
2022/07/09 08:10:09;;;;;;;4.23;3.80;;;21.80;95.00;;;;;;5046278;28;20635;-70
2022/07/09 08:12:35;;;;;;;6.33;3.97;;;22.00;95.10;;;;;;5025194;28;20216;-70
2022/07/09 08:15:00;;;;;;;3.77;3.47;;;22.10;94.80;;;;;;5054698;28;20465;-71
2022/07/09 08:17:26;;;;;;;5.00;3.97;;;22.20;94.70;;;;;;5047104;28;20231;-70
2022/07/09 08:19:52;;;;;;;6.30;3.90;;;22.20;94.40;;;;;;5047642;28;20232;-70
2022/07/09 08:22:18;;;;;;;5.60;4.23;;;22.20;94.30;;;;;;5040061;28;20224;-70
2022/07/09 08:24:43;;;;;;;3.80;3.13;;;22.20;93.80;;;;;;5054409;28;20766;-70
2022/07/09 08:27:09;;;;;;;4.23;3.90;;;22.40;94.10;;;;;;5047298;28;20211;-70
2022/07/09 08:29:35;;;;;;;3.90;3.60;;;22.50;94.10;;;;;;5025550;28;20291;-71
2022/07/09 08:32:02;;;;;;;3.60;3.30;;;22.50;93.40;;;;;;5045412;28;20630;-70
2022/07/09 08:34:28;;;;;;;6.23;4.00;;;22.60;93.50;;;;;;5046486;28;20211;-70
2022/07/09 08:36:53;;;;;;;3.97;3.43;;;22.60;93.30;;;;;;5064040;28;20825;-70
2022/07/09 08:39:19;;;;;;;5.20;3.43;;;22.70;93.40;;;;;;5046659;28;20231;-69
2022/07/09 08:41:45;;;;;;;9.23;3.83;;;22.70;93.10;;;;;;5046700;28;20214;-70
2022/07/09 08:44:12;;;;;;;4.17;3.50;;;22.80;93.30;;;;;;5030941;28;20224;-70
2022/07/09 08:46:38;;;;;;;5.77;3.70;;;22.80;92.70;;;;;;5047592;28;20454;-73
2022/07/09 08:49:06;;;;;;;4.00;3.60;;;22.80;92.40;;;;;;5043831;28;20946;-71
2022/07/09 08:51:33;;;;;;;5.80;3.70;;;22.80;92.10;;;;;;5039285;28;20969;-70
2022/07/09 08:54:00;;;;;;;3.03;2.83;;;22.80;92.30;;;;;;5056527;28;20966;-70
2022/07/09 08:56:25;;;;;;;4.33;3.90;;;22.90;92.10;;;;;;5039053;28;20458;-70
2022/07/09 08:58:51;;;;;;;4.07;3.43;;;22.90;91.90;;;;;;5042539;28;20545;-70
2022/07/09 09:01:17;;;;;;;3.23;2.80;;;22.90;91.90;;;;;;5036379;28;20223;-70
2022/07/09 09:03:43;;;;;;;3.23;2.93;;;22.90;91.50;;;;;;5042794;28;20230;-70
2022/07/09 09:06:10;;;;;;;5.60;3.03;;;22.90;91.70;;;;;;5059863;28;20224;-70
2022/07/09 09:08:40;;;;;;;4.00;3.00;;;22.90;91.50;;;;;;5043206;28;20219;-69
2022/07/09 09:11:08;;;;;;;3.87;3.67;;;23.00;91.70;;;;;;5039035;28;20463;-70
2022/07/09 09:13:40;;;;;;;3.67;3.43;;;23.10;91.50;;;;;;5040033;28;20549;-70
2022/07/09 09:16:08;;;;;;;3.57;3.27;;;23.10;91.50;;;;;;5042558;28;20552;-71
2022/07/09 09:18:41;;;;;;;3.70;3.47;;;23.20;91.40;;;;;;5042392;28;20473;-70
2022/07/09 09:21:08;;;;;;;3.57;3.37;;;23.20;90.90;;;;;;5043012;28;20474;-70
2022/07/09 09:24:04;;;;;;;3.00;2.80;;;23.30;91.00;;;;;;5046238;28;20515;-70
2022/07/09 09:26:30;;;;;;;3.83;3.53;;;23.30;90.90;;;;;;5024711;28;20465;-70
2022/07/09 09:29:00;;;;;;;4.20;3.90;;;23.20;90.30;;;;;;5047699;28;20458;-70
2022/07/09 09:31:36;;;;;;;3.80;3.60;;;23.20;90.50;;;;;;5049275;28;20311;-70
2022/07/09 09:34:12;;;;;;;3.57;3.27;;;23.20;90.30;;;;;;5048424;28;20473;-70
2022/07/09 09:36:39;;;;;;;5.87;3.63;;;23.30;90.50;;;;;;5041274;28;20538;-70
2022/07/09 09:39:25;;;;;;;3.43;3.13;;;23.30;90.20;;;;;;5048593;28;20463;-70
2022/07/09 09:41:52;;;;;;;3.37;3.17;;;23.40;90.30;;;;;;5040067;28;20968;-70
2022/07/09 09:44:37;;;;;;;3.00;2.80;;;23.40;90.10;;;;;;5044606;28;20474;-70
2022/07/09 09:47:04;;;;;;;3.20;3.00;;;23.40;90.00;;;;;;5044549;28;20965;-69
2022/07/09 09:49:30;;;;;;;3.77;3.20;;;23.50;90.20;;;;;;5046066;28;20465;-70
2022/07/09 09:52:03;;;;;;;2.93;2.73;;;23.60;90.00;;;;;;5045422;28;20465;-70
2022/07/09 09:54:32;;;;;;;2.83;2.63;;;23.50;90.00;;;;;;5040613;28;20361;-70
2022/07/09 09:56:59;;;;;;;3.60;2.50;;;23.60;90.10;;;;;;5044353;28;20827;-70
2022/07/09 09:59:25;;;;;;;3.17;2.97;;;23.70;89.30;;;;;;5048108;28;20462;-70
2022/07/09 10:01:51;;;;;;;2.43;2.23;;;23.70;88.10;;;;;;5049512;28;20482;-70
2022/07/09 10:04:18;;;;;;;6.43;5.90;;;23.80;88.90;;;;;;5043751;28;20476;-70
2022/07/09 10:06:44;;;;;;;4.60;4.20;;;24.00;89.40;;;;;;5027386;28;20823;-70
2022/07/09 10:09:14;;;;;;;3.60;2.97;;;24.00;88.80;;;;;;5041397;28;20453;-71
2022/07/09 10:11:41;;;;;;;3.77;2.80;;;24.10;89.00;;;;;;5046764;28;20441;-70
2022/07/09 10:14:07;;;;;;;2.60;2.50;;;24.00;88.30;;;;;;5048784;28;20982;-70
2022/07/09 10:16:40;;;;;;;3.63;2.90;;;24.00;88.50;;;;;;5045788;28;20465;-70
2022/07/09 10:19:06;;;;;;;3.50;3.20;;;24.00;88.70;;;;;;5029194;28;20493;-70
2022/07/09 10:21:33;;;;;;;3.10;2.80;;;24.00;88.00;;;;;;5054304;28;20458;-70
2022/07/09 10:23:59;;;;;;;2.80;2.60;;;24.10;87.60;;;;;;5047247;28;20577;-70
2022/07/09 10:26:46;;;;;;;2.60;2.40;;;24.20;87.00;;;;;;5031929;28;20544;-70
2022/07/09 10:29:53;;;;;;;2.37;2.27;;;24.10;85.60;;;;;;5043116;28;20219;-70
2022/07/09 10:32:31;;;;;;;2.20;2.10;;;24.10;86.10;;;;;;5040556;28;20468;-71
2022/07/09 10:35:01;;;;;;;1.90;1.80;;;24.30;86.10;;;;;;5050706;28;20543;-70
2022/07/09 10:37:42;;;;;;;2.30;2.10;;;24.50;86.70;;;;;;5043786;28;20470;-70
2022/07/09 10:40:16;;;;;;;2.10;2.00;;;24.60;87.00;;;;;;5044671;28;20460;-69
2022/07/09 10:42:44;;;;;;;2.30;2.10;;;24.70;84.70;;;;;;5046880;28;20458;-70
2022/07/09 10:45:22;;;;;;;2.30;2.20;;;24.70;85.30;;;;;;5045373;28;20549;-70
2022/07/09 10:47:57;;;;;;;2.00;1.90;;;24.70;84.10;;;;;;5022630;28;20445;-70
2022/07/09 10:50:24;;;;;;;2.33;2.00;;;24.80;84.30;;;;;;5043362;28;20462;-69
2022/07/09 10:52:51;;;;;;;2.40;2.30;;;24.90;83.30;;;;;;5046313;28;20527;-70
2022/07/09 10:55:22;;;;;;;2.37;2.17;;;25.10;84.40;;;;;;5047493;28;20461;-69
2022/07/09 10:57:48;;;;;;;2.23;1.97;;;25.20;84.30;;;;;;5034205;28;20464;-70
2022/07/09 11:00:16;;;;;;;2.80;2.60;;;25.40;83.40;;;;;;5046711;28;20450;-70
2022/07/09 11:03:11;;;;;;;2.27;1.90;;;25.50;84.10;;;;;;5050076;28;20456;-70
2022/07/09 11:05:44;;;;;;;2.23;2.10;;;25.60;83.50;;;;;;5044319;28;21030;-70
2022/07/09 11:08:10;;;;;;;2.30;2.20;;;25.80;83.60;;;;;;5048666;28;20529;-70
2022/07/09 11:10:40;;;;;;;2.23;2.13;;;25.80;82.20;;;;;;5042016;28;20569;-70
2022/07/09 11:13:08;;;;;;;2.00;1.90;;;26.00;82.80;;;;;;5044769;28;20219;-70
2022/07/09 11:15:35;;;;;;;2.00;1.90;;;26.10;82.40;;;;;;5045905;28;20454;-71
2022/07/09 11:18:02;;;;;;;2.20;2.10;;;26.20;80.00;;;;;;5037169;28;20462;-70
2022/07/09 11:20:30;;;;;;;2.00;1.90;;;26.20;80.00;;;;;;5051752;28;20484;-70
2022/07/09 11:22:56;;;;;;;2.43;2.23;;;26.00;79.40;;;;;;5051849;28;20458;-70
2022/07/09 11:25:24;;;;;;;2.47;2.27;;;26.00;79.90;;;;;;5050263;28;20576;-70
2022/07/09 11:27:51;;;;;;;2.53;2.33;;;25.90;78.80;;;;;;5051141;28;20555;-70
2022/07/09 11:30:17;;;;;;;2.40;2.20;;;25.90;79.50;;;;;;5052297;28;20492;-69
2022/07/09 11:32:43;;;;;;;3.03;2.50;;;26.10;80.10;;;;;;5050341;28;20655;-70
2022/07/09 11:35:10;;;;;;;2.30;2.20;;;26.20;79.30;;;;;;5051608;28;20226;-70
2022/07/09 11:37:37;;;;;;;2.20;2.10;;;26.20;79.90;;;;;;5053655;28;20264;-70
2022/07/09 11:40:04;;;;;;;2.77;2.37;;;26.50;79.50;;;;;;5053884;28;20467;-70
2022/07/09 11:42:29;;;;;;;2.67;2.20;;;26.40;77.70;;;;;;5049993;28;20481;-70
2022/07/09 11:44:56;;;;;;;2.43;2.33;;;26.40;78.90;;;;;;5050560;28;20450;-70
2022/07/09 11:47:33;;;;;;;2.47;2.37;;;26.60;79.50;;;;;;5050038;28;20218;-70
2022/07/09 11:50:10;;;;;;;2.50;2.40;;;26.50;77.70;;;;;;5050451;28;20544;-70
2022/07/09 11:52:44;;;;;;;2.20;2.10;;;26.60;76.80;;;;;;5051672;28;20941;-70
2022/07/09 11:55:11;;;;;;;2.17;2.07;;;26.60;76.30;;;;;;5050179;28;20462;-70
2022/07/09 11:57:38;;;;;;;2.23;2.10;;;26.60;76.10;;;;;;5045583;28;20438;-70
2022/07/09 12:00:19;;;;;;;1.97;1.80;;;26.70;76.30;;;;;;5050725;28;20480;-71
2022/07/09 12:02:46;;;;;;;2.40;2.20;;;26.70;77.40;;;;;;5043726;28;20458;-71
2022/07/09 12:05:11;;;;;;;2.30;2.20;;;26.90;76.40;;;;;;5049991;28;20986;-71
2022/07/09 12:07:37;;;;;;;2.57;2.37;;;27.00;76.90;;;;;;5048276;28;20473;-70
2022/07/09 12:10:09;;;;;;;2.30;2.20;;;26.80;74.60;;;;;;5034439;28;20220;-69
2022/07/09 12:12:36;;;;;;;2.33;2.13;;;26.80;75.00;;;;;;5050254;28;20235;-70
2022/07/09 12:15:04;;;;;;;2.40;2.30;;;26.70;74.50;;;;;;5051490;28;20519;-69
2022/07/09 12:17:31;;;;;;;2.80;2.60;;;26.70;74.50;;;;;;5049242;28;20453;-70
2022/07/09 12:19:58;;;;;;;2.43;2.33;;;26.60;74.90;;;;;;5053888;28;21019;-70
2022/07/09 12:22:25;;;;;;;2.37;2.27;;;26.50;75.30;;;;;;5050920;28;20473;-70
2022/07/09 12:24:51;;;;;;;2.17;2.07;;;26.70;75.50;;;;;;5059677;28;20982;-70
2022/07/09 12:27:17;;;;;;;2.33;2.13;;;26.90;75.90;;;;;;5041747;28;20459;-70
2022/07/09 12:29:43;;;;;;;2.57;2.37;;;26.90;73.70;;;;;;5024162;28;20455;-70
2022/07/09 12:32:09;;;;;;;1.83;1.70;;;26.90;73.00;;;;;;5045607;28;20965;-71
2022/07/09 12:34:35;;;;;;;1.90;1.80;;;27.00;74.30;;;;;;5053035;28;20224;-72
2022/07/09 12:37:01;;;;;;;2.33;2.07;;;27.20;73.90;;;;;;5050092;28;20579;-71
2022/07/09 12:39:27;;;;;;;2.20;2.10;;;27.20;73.00;;;;;;5052242;28;20705;-70
2022/07/09 12:41:53;;;;;;;1.90;1.80;;;27.20;73.10;;;;;;5052741;28;20455;-70
2022/07/09 12:44:18;;;;;;;2.42;2.33;;;27.30;73.10;;;;;;5047261;28;20621;-70
2022/07/09 12:46:44;;;;;;;2.40;2.20;;;27.40;72.90;;;;;;5049318;28;20246;-71